createdAt,value
2018-12-12T00:00:31.460Z,3.40
2018-12-12T00:01:31.457Z,3.50
2018-12-12T00:02:31.433Z,3.60
2018-12-12T00:03:31.425Z,3.80
2018-12-12T00:04:31.418Z,3.00
2018-12-12T00:05:31.401Z,4.00
2018-12-12T00:06:31.402Z,4.30
2018-12-12T00:07:31.382Z,3.60
2018-12-12T00:08:31.371Z,4.10
2018-12-12T00:09:31.357Z,3.40
2018-12-12T00:10:31.348Z,4.20
2018-12-12T00:11:31.366Z,3.40
2018-12-12T00:12:31.325Z,3.90
2018-12-12T00:13:31.317Z,3.60
2018-12-12T00:14:31.312Z,4.20
2018-12-12T00:15:31.294Z,4.60
2018-12-12T00:16:31.282Z,3.60
2018-12-12T00:17:31.289Z,4.00
2018-12-12T00:18:31.264Z,3.30
2018-12-12T00:19:31.255Z,4.20
2018-12-12T00:20:31.243Z,4.00
2018-12-12T00:21:31.231Z,3.00
2018-12-12T00:22:31.233Z,3.00
2018-12-12T00:23:31.221Z,3.70
2018-12-12T00:24:31.203Z,2.90
2018-12-12T00:25:31.195Z,3.60
2018-12-12T00:26:31.178Z,3.80
2018-12-12T00:27:31.183Z,4.50
2018-12-12T00:28:31.156Z,4.80
2018-12-12T00:29:31.150Z,3.10
2018-12-12T00:30:31.141Z,3.50
2018-12-12T00:31:31.129Z,4.30
2018-12-12T00:32:31.127Z,3.90
2018-12-12T00:33:31.110Z,4.40
2018-12-12T00:34:31.099Z,4.20
2018-12-12T00:35:31.086Z,4.10
2018-12-12T00:36:31.074Z,4.40
2018-12-12T00:37:31.078Z,4.40
2018-12-12T00:38:31.061Z,3.30
2018-12-12T00:39:31.042Z,5.70
2018-12-12T00:40:31.035Z,4.10
2018-12-12T00:41:31.026Z,4.40
2018-12-12T00:42:31.024Z,3.40
2018-12-12T00:43:30.998Z,4.00
2018-12-12T00:44:30.996Z,6.30
2018-12-12T00:45:30.977Z,5.20
2018-12-12T00:46:30.966Z,5.90
2018-12-12T00:47:30.988Z,5.60
2018-12-12T00:48:30.953Z,5.40
2018-12-12T00:49:30.937Z,4.40
2018-12-12T00:50:30.923Z,5.10
2018-12-12T00:51:30.914Z,4.40
2018-12-12T00:52:30.904Z,4.50
2018-12-12T00:53:30.907Z,6.50
2018-12-12T00:54:30.882Z,5.20
2018-12-12T00:55:30.871Z,5.70
2018-12-12T00:56:30.860Z,4.20
2018-12-12T00:57:30.854Z,4.00
2018-12-12T00:58:31.626Z,4.30
2018-12-12T00:59:30.829Z,3.60
2018-12-12T01:00:30.824Z,5.00
2018-12-12T01:01:30.810Z,4.50
2018-12-12T01:02:30.801Z,4.60
2018-12-12T01:03:30.807Z,5.80
2018-12-12T01:04:30.777Z,4.40
2018-12-12T01:05:30.770Z,4.40
2018-12-12T01:06:30.764Z,4.00
2018-12-12T01:07:30.744Z,3.80
2018-12-12T01:08:30.746Z,3.60
2018-12-12T01:09:30.722Z,3.90
2018-12-12T01:10:30.713Z,4.00
2018-12-12T01:11:30.706Z,4.30
2018-12-12T01:12:30.693Z,3.60
2018-12-12T01:13:30.693Z,3.60
2018-12-12T01:14:30.674Z,3.50
2018-12-12T01:15:30.660Z,3.90
2018-12-12T01:16:30.653Z,4.50
2018-12-12T01:17:30.641Z,4.20
2018-12-12T01:18:30.648Z,4.30
2018-12-12T01:19:30.616Z,5.40
2018-12-12T01:20:30.605Z,3.80
2018-12-12T01:21:30.598Z,4.90
2018-12-12T01:22:30.587Z,5.30
2018-12-12T01:23:30.589Z,4.80
2018-12-12T01:24:30.567Z,4.90
2018-12-12T01:25:30.556Z,4.10
2018-12-12T01:26:30.541Z,5.70
2018-12-12T01:27:30.534Z,4.60
2018-12-12T01:28:30.552Z,5.20
2018-12-12T01:29:30.514Z,3.80
2018-12-12T01:30:30.500Z,4.10
2018-12-12T01:31:30.499Z,4.20
2018-12-12T01:32:30.479Z,4.20
2018-12-12T01:33:30.470Z,4.30
2018-12-12T01:34:30.474Z,4.80
2018-12-12T01:35:30.447Z,4.20
2018-12-12T01:36:30.436Z,4.30
2018-12-12T01:37:30.427Z,5.30
2018-12-12T01:38:30.418Z,4.10
2018-12-12T01:39:30.415Z,3.90
2018-12-12T01:40:30.397Z,4.40
2018-12-12T01:41:30.398Z,5.30
2018-12-12T01:42:30.375Z,4.50
2018-12-12T01:43:30.362Z,4.60
2018-12-12T01:44:30.363Z,5.20
2018-12-12T01:45:30.342Z,5.00
2018-12-12T01:46:30.328Z,6.00
2018-12-12T01:47:30.318Z,5.60
2018-12-12T01:48:30.306Z,5.50
2018-12-12T01:49:30.313Z,6.20
2018-12-12T01:50:30.292Z,5.60
2018-12-12T01:51:30.276Z,6.10
2018-12-12T01:52:30.266Z,7.10
2018-12-12T01:53:30.257Z,5.90
2018-12-12T01:54:30.258Z,5.10
2018-12-12T01:55:30.236Z,6.40
2018-12-12T01:56:30.224Z,6.60
2018-12-12T01:57:30.211Z,6.70
2018-12-12T01:58:30.204Z,7.20
2018-12-12T01:59:30.212Z,6.10
2018-12-12T02:00:30.186Z,8.00
2018-12-12T02:01:30.169Z,5.70
2018-12-12T02:02:30.159Z,7.40
2018-12-12T02:03:30.149Z,7.20
2018-12-12T02:04:30.151Z,7.40
2018-12-12T02:05:30.128Z,6.30
2018-12-12T02:06:30.116Z,7.40
2018-12-12T02:07:30.107Z,7.90
2018-12-12T02:08:30.094Z,6.70
2018-12-12T02:09:30.118Z,6.00
2018-12-12T02:10:30.076Z,7.00
2018-12-12T02:11:30.069Z,7.80
2018-12-12T02:12:30.050Z,8.00
2018-12-12T02:13:30.041Z,6.10
2018-12-12T02:14:30.032Z,6.20
2018-12-12T02:15:30.033Z,7.50
2018-12-12T02:16:30.014Z,7.20
2018-12-12T02:17:30.001Z,8.60
2018-12-12T02:18:29.987Z,9.20
2018-12-12T02:19:29.977Z,9.30
2018-12-12T02:20:29.983Z,7.40
2018-12-12T02:21:30.001Z,8.00
2018-12-12T02:22:29.947Z,6.90
2018-12-12T02:23:29.934Z,6.50
2018-12-12T02:24:29.923Z,7.40
2018-12-12T02:25:29.924Z,8.10
2018-12-12T02:26:29.905Z,8.70
2018-12-12T02:27:29.897Z,9.30
2018-12-12T02:28:29.882Z,7.00
2018-12-12T02:29:29.872Z,8.30
2018-12-12T02:30:29.901Z,7.20
2018-12-12T02:31:29.849Z,7.30
2018-12-12T02:32:29.844Z,6.70
2018-12-12T02:33:29.831Z,8.60
2018-12-12T02:34:29.820Z,7.50
2018-12-12T02:35:29.813Z,8.30
2018-12-12T02:36:29.808Z,7.80
2018-12-12T02:37:29.785Z,7.70
2018-12-12T02:38:29.778Z,7.00
2018-12-12T02:39:29.785Z,7.90
2018-12-12T02:40:29.765Z,7.20
2018-12-12T02:41:29.756Z,6.90
2018-12-12T02:42:29.733Z,6.60
2018-12-12T02:43:29.720Z,6.70
2018-12-12T02:44:29.711Z,6.60
2018-12-12T02:45:29.702Z,6.70
2018-12-12T02:46:29.704Z,6.60
2018-12-12T02:47:29.677Z,7.10
2018-12-12T02:48:29.665Z,6.70
2018-12-12T02:49:29.656Z,5.90
2018-12-12T02:50:29.654Z,7.70
2018-12-12T02:51:29.651Z,7.30
2018-12-12T02:52:29.630Z,8.10
2018-12-12T02:53:29.613Z,6.30
2018-12-12T02:54:29.603Z,7.60
2018-12-12T02:55:29.590Z,6.70
2018-12-12T02:56:29.604Z,6.70
2018-12-12T02:57:29.579Z,8.20
2018-12-12T02:58:29.566Z,6.20
2018-12-12T02:59:29.550Z,5.90
2018-12-12T03:00:29.538Z,5.30
2018-12-12T03:01:29.537Z,4.90
2018-12-12T03:02:29.520Z,5.90
2018-12-12T03:03:29.508Z,6.50
2018-12-12T03:04:29.494Z,6.00
2018-12-12T03:05:29.490Z,4.40
2018-12-12T03:06:29.521Z,4.50
2018-12-12T03:07:29.462Z,6.90
2018-12-12T03:08:29.466Z,4.80
2018-12-12T03:09:29.442Z,4.60
2018-12-12T03:10:29.437Z,5.10
2018-12-12T03:11:29.419Z,5.20
2018-12-12T03:12:29.421Z,5.10
2018-12-12T03:13:29.402Z,5.70
2018-12-12T03:14:29.393Z,6.20
2018-12-12T03:15:29.380Z,4.70
2018-12-12T03:16:29.365Z,4.90
2018-12-12T03:17:29.369Z,5.90
2018-12-12T03:18:29.348Z,4.60
2018-12-12T03:19:29.338Z,4.20
2018-12-12T03:20:29.325Z,5.60
2018-12-12T03:21:29.431Z,4.90
2018-12-12T03:22:29.316Z,5.00
2018-12-12T03:23:29.297Z,6.60
2018-12-12T03:24:29.283Z,5.00
2018-12-12T03:25:29.270Z,6.70
2018-12-12T03:26:29.259Z,4.70
2018-12-12T03:27:29.258Z,6.70
2018-12-12T03:28:29.238Z,6.00
2018-12-12T03:29:29.228Z,5.50
2018-12-12T03:30:29.220Z,5.00
2018-12-12T03:31:29.209Z,5.00
2018-12-12T03:32:29.209Z,5.10
2018-12-12T03:33:29.195Z,4.20
2018-12-12T03:34:29.177Z,4.20
2018-12-12T03:35:29.162Z,4.90
2018-12-12T03:36:29.154Z,4.30
2018-12-12T03:37:29.152Z,4.60
2018-12-12T03:38:29.130Z,5.60
2018-12-12T03:39:29.123Z,4.30
2018-12-12T03:40:29.109Z,5.00
2018-12-12T03:41:29.109Z,5.00
2018-12-12T03:42:29.272Z,5.10
2018-12-12T03:43:29.081Z,5.60
2018-12-12T03:44:29.070Z,6.70
2018-12-12T03:45:29.073Z,5.60
2018-12-12T03:46:29.049Z,4.90
2018-12-12T03:47:29.040Z,6.10
2018-12-12T03:48:29.033Z,6.90
2018-12-12T03:49:29.020Z,5.30
2018-12-12T03:50:29.006Z,5.60
2018-12-12T03:51:28.993Z,4.60
2018-12-12T03:52:28.982Z,5.40
2018-12-12T03:53:28.986Z,7.80
2018-12-12T03:54:28.962Z,5.50
2018-12-12T03:55:28.955Z,6.80
2018-12-12T03:56:28.938Z,5.50
2018-12-12T03:57:28.943Z,4.90
2018-12-12T03:58:28.927Z,6.50
2018-12-12T03:59:28.905Z,6.30
2018-12-12T04:00:28.905Z,5.80
2018-12-12T04:01:28.886Z,6.70
2018-12-12T04:02:28.877Z,7.30
2018-12-12T04:03:28.881Z,5.10
2018-12-12T04:04:28.855Z,6.70
2018-12-12T04:05:28.841Z,6.30
2018-12-12T04:06:28.832Z,5.70
2018-12-12T04:07:28.823Z,5.70
2018-12-12T04:08:28.825Z,7.10
2018-12-12T04:09:28.798Z,6.70
2018-12-12T04:10:28.790Z,5.70
2018-12-12T04:11:28.778Z,5.90
2018-12-12T04:12:28.767Z,6.60
2018-12-12T04:13:28.776Z,7.70
2018-12-12T04:14:28.746Z,6.40
2018-12-12T04:15:28.734Z,7.70
2018-12-12T04:16:28.724Z,6.40
2018-12-12T04:17:28.718Z,5.30
2018-12-12T04:18:28.717Z,5.50
2018-12-12T04:19:28.698Z,6.40
2018-12-12T04:20:28.685Z,6.50
2018-12-12T04:21:28.673Z,7.30
2018-12-12T04:22:28.664Z,7.20
2018-12-12T04:23:28.697Z,6.80
2018-12-12T04:24:28.636Z,8.60
2018-12-12T04:25:28.628Z,8.30
2018-12-12T04:26:28.616Z,9.30
2018-12-12T04:27:28.605Z,7.70
2018-12-12T04:28:28.606Z,7.60
2018-12-12T04:29:28.587Z,8.40
2018-12-12T04:30:28.572Z,7.40
2018-12-12T04:31:28.562Z,8.00
2018-12-12T04:32:28.553Z,6.50
2018-12-12T04:33:28.576Z,7.10
2018-12-12T04:34:28.530Z,8.20
2018-12-12T04:35:28.519Z,9.00
2018-12-12T04:36:28.510Z,8.90
2018-12-12T04:37:28.500Z,7.30
2018-12-12T04:38:28.490Z,8.40
2018-12-12T04:39:28.489Z,7.80
2018-12-12T04:40:28.469Z,9.00
2018-12-12T04:41:28.458Z,8.60
2018-12-12T04:42:28.466Z,9.70
2018-12-12T04:43:28.437Z,8.90
2018-12-12T04:44:28.436Z,10.30
2018-12-12T04:45:28.414Z,8.90
2018-12-12T04:46:28.411Z,10.30
2018-12-12T04:47:28.393Z,8.90
2018-12-12T04:48:28.385Z,10.60
2018-12-12T04:49:28.383Z,9.70
2018-12-12T04:50:28.360Z,9.40
2018-12-12T04:51:28.349Z,11.60
2018-12-12T04:52:28.344Z,12.00
2018-12-12T04:53:28.329Z,11.90
2018-12-12T04:54:28.328Z,11.40
2018-12-12T04:55:28.308Z,12.60
2018-12-12T04:56:28.298Z,11.90
2018-12-12T04:57:28.288Z,11.50
2018-12-12T04:58:28.275Z,13.60
2018-12-12T04:59:28.294Z,13.60
2018-12-12T05:00:28.256Z,13.10
2018-12-12T05:01:28.242Z,13.00
2018-12-12T05:02:28.236Z,14.20
2018-12-12T05:03:28.222Z,12.50
2018-12-12T05:04:28.222Z,14.40
2018-12-12T05:05:28.199Z,13.50
2018-12-12T05:06:28.191Z,13.60
2018-12-12T05:07:28.181Z,14.60
2018-12-12T05:08:28.171Z,15.30
2018-12-12T05:09:28.168Z,13.30
2018-12-12T05:10:28.145Z,15.00
2018-12-12T05:11:28.138Z,14.70
2018-12-12T05:12:28.131Z,15.90
2018-12-12T05:13:28.116Z,16.30
2018-12-12T05:14:28.118Z,15.20
2018-12-12T05:15:28.100Z,17.00
2018-12-12T05:16:28.085Z,16.90
2018-12-12T05:17:28.077Z,16.90
2018-12-12T05:18:28.062Z,16.00
2018-12-12T05:19:28.063Z,16.20
2018-12-12T05:20:28.042Z,16.80
2018-12-12T05:21:28.035Z,16.00
2018-12-12T05:22:28.029Z,15.10
2018-12-12T05:23:28.009Z,16.70
2018-12-12T05:24:28.009Z,17.60
2018-12-12T05:25:27.991Z,15.80
2018-12-12T05:26:27.983Z,17.10
2018-12-12T05:27:27.968Z,16.50
2018-12-12T05:28:27.959Z,18.50
2018-12-12T05:29:27.981Z,18.00
2018-12-12T05:30:27.942Z,16.10
2018-12-12T05:31:27.929Z,16.10
2018-12-12T05:32:27.925Z,16.30
2018-12-12T05:33:27.905Z,16.30
2018-12-12T05:34:27.897Z,16.30
2018-12-12T05:35:27.902Z,17.50
2018-12-12T05:36:27.878Z,17.00
2018-12-12T05:37:27.866Z,18.00
2018-12-12T05:38:27.855Z,16.90
2018-12-12T05:39:27.840Z,19.50
2018-12-12T05:40:27.844Z,18.60
2018-12-12T05:41:27.826Z,17.50
2018-12-12T05:42:27.815Z,17.00
2018-12-12T05:43:27.801Z,19.50
2018-12-12T05:44:27.789Z,19.30
2018-12-12T05:45:27.789Z,18.70
2018-12-12T05:46:27.775Z,19.20
2018-12-12T05:47:27.757Z,18.30
2018-12-12T05:48:27.747Z,19.00
2018-12-12T05:49:27.736Z,20.40
2018-12-12T05:50:27.739Z,21.00
2018-12-12T05:51:27.715Z,20.60
2018-12-12T05:52:27.709Z,21.10
2018-12-12T05:53:27.692Z,19.10
2018-12-12T05:54:27.694Z,20.30
2018-12-12T05:55:28.837Z,20.50
2018-12-12T05:56:27.667Z,20.10
2018-12-12T05:57:27.653Z,18.10
2018-12-12T05:58:27.643Z,21.80
2018-12-12T05:59:27.630Z,19.60
2018-12-12T06:00:27.634Z,19.60
2018-12-12T06:01:27.622Z,19.90
2018-12-12T06:02:27.606Z,21.40
2018-12-12T06:03:27.590Z,20.80
2018-12-12T06:04:27.585Z,22.00
2018-12-12T06:05:27.589Z,20.10
2018-12-12T06:06:27.559Z,20.30
2018-12-12T06:07:27.549Z,21.50
2018-12-12T06:08:27.536Z,21.30
2018-12-12T06:09:27.530Z,20.60
2018-12-12T06:10:27.549Z,19.60
2018-12-12T06:11:27.504Z,20.60
2018-12-12T06:12:27.495Z,20.30
2018-12-12T06:13:27.484Z,24.50
2018-12-12T06:14:27.473Z,23.10
2018-12-12T06:15:27.462Z,23.70
2018-12-12T06:16:27.466Z,23.20
2018-12-12T06:17:27.444Z,20.90
2018-12-12T06:18:27.433Z,21.10
2018-12-12T06:19:27.428Z,20.90
2018-12-12T06:20:27.415Z,22.00
2018-12-12T06:21:27.414Z,20.80
2018-12-12T06:22:27.389Z,20.10
2018-12-12T06:23:27.391Z,21.30
2018-12-12T06:24:27.372Z,20.80
2018-12-12T06:25:27.358Z,20.70
2018-12-12T06:26:27.359Z,21.20
2018-12-12T06:27:27.349Z,19.60
2018-12-12T06:28:27.329Z,20.50
2018-12-12T06:29:27.315Z,19.80
2018-12-12T06:30:27.303Z,19.00
2018-12-12T06:31:27.390Z,20.30
2018-12-12T06:32:27.295Z,20.50
2018-12-12T06:33:27.281Z,20.20
2018-12-12T06:34:27.262Z,19.00
2018-12-12T06:35:27.254Z,19.10
2018-12-12T06:36:27.256Z,19.30
2018-12-12T06:37:27.231Z,22.40
2018-12-12T06:38:27.226Z,22.70
2018-12-12T06:39:27.228Z,20.90
2018-12-12T06:40:27.208Z,21.00
2018-12-12T06:41:27.205Z,20.30
2018-12-12T06:42:27.179Z,24.50
2018-12-12T06:43:27.168Z,23.00
2018-12-12T06:44:27.185Z,20.20
2018-12-12T06:45:27.147Z,21.70
2018-12-12T06:46:27.147Z,20.80
2018-12-12T06:47:27.127Z,19.90
2018-12-12T06:48:27.116Z,21.70
2018-12-12T06:49:27.107Z,20.80
2018-12-12T06:50:27.106Z,20.20
2018-12-12T06:51:27.113Z,21.50
2018-12-12T06:52:27.075Z,23.30
2018-12-12T06:53:27.065Z,21.40
2018-12-12T06:54:27.052Z,20.10
2018-12-12T06:55:27.052Z,20.70
2018-12-12T06:56:27.071Z,24.10
2018-12-12T06:57:27.021Z,24.00
2018-12-12T06:58:27.009Z,24.70
2018-12-12T06:59:27.017Z,23.90
2018-12-12T07:00:26.992Z,23.00
2018-12-12T07:01:26.982Z,21.90
2018-12-12T07:02:26.980Z,22.90
2018-12-12T07:03:26.957Z,23.40
2018-12-12T07:04:26.949Z,23.70
2018-12-12T07:05:26.961Z,21.70
2018-12-12T07:06:26.925Z,22.60
2018-12-12T07:07:26.930Z,22.00
2018-12-12T07:08:26.908Z,23.50
2018-12-12T07:09:26.900Z,22.40
2018-12-12T07:10:26.888Z,20.90
2018-12-12T07:11:26.874Z,21.20
2018-12-12T07:12:26.878Z,22.70
2018-12-12T07:13:26.862Z,20.70
2018-12-12T07:14:26.856Z,19.90
2018-12-12T07:15:26.830Z,21.80
2018-12-12T07:16:26.877Z,20.50
2018-12-12T07:17:26.832Z,20.80
2018-12-12T07:18:26.800Z,21.90
2018-12-12T07:19:26.795Z,19.20
2018-12-12T07:20:26.787Z,18.10
2018-12-12T07:21:26.771Z,20.50
2018-12-12T07:22:26.799Z,18.50
2018-12-12T07:23:26.747Z,18.40
2018-12-12T07:24:26.746Z,17.20
2018-12-12T07:25:26.728Z,17.50
2018-12-12T07:26:26.716Z,19.60
2018-12-12T07:27:26.711Z,16.90
2018-12-12T07:28:26.704Z,16.70
2018-12-12T07:29:26.688Z,18.20
2018-12-12T07:30:26.687Z,17.20
2018-12-12T07:31:26.664Z,17.80
2018-12-12T07:32:26.652Z,17.10
2018-12-12T07:33:26.651Z,16.20
2018-12-12T07:34:26.631Z,15.80
2018-12-12T07:35:26.619Z,16.30
2018-12-12T07:36:26.609Z,14.70
2018-12-12T07:37:27.162Z,18.20
2018-12-12T07:38:26.602Z,16.20
2018-12-12T07:39:26.587Z,15.80
2018-12-12T07:40:26.567Z,16.80
2018-12-12T07:41:26.559Z,15.80
2018-12-12T07:42:26.548Z,17.50
2018-12-12T07:43:26.547Z,15.70
2018-12-12T07:44:26.528Z,14.30
2018-12-12T07:45:26.516Z,15.50
2018-12-12T07:46:27.203Z,16.40
2018-12-12T07:47:26.494Z,15.30
2018-12-12T07:48:26.496Z,15.80
2018-12-12T07:49:26.473Z,15.20
2018-12-12T07:50:26.465Z,15.00
2018-12-12T07:51:26.464Z,17.50
2018-12-12T07:52:26.443Z,17.60
2018-12-12T07:53:26.459Z,16.10
2018-12-12T07:54:26.420Z,15.10
2018-12-12T07:55:26.409Z,17.30
2018-12-12T07:56:26.428Z,14.70
2018-12-12T07:57:26.388Z,16.40
2018-12-12T07:58:26.392Z,14.70
2018-12-12T07:59:26.377Z,15.70
2018-12-12T08:00:26.358Z,13.70
2018-12-12T08:01:26.345Z,14.00
2018-12-12T08:02:26.341Z,16.50
2018-12-12T08:03:26.362Z,15.90
2018-12-12T08:04:26.312Z,15.80
2018-12-12T08:05:26.410Z,14.40
2018-12-12T08:06:26.310Z,15.80
2018-12-12T08:07:26.285Z,15.80
2018-12-12T08:08:26.283Z,14.40
2018-12-12T08:09:26.286Z,15.80
2018-12-12T08:10:26.252Z,15.90
2018-12-12T08:11:26.239Z,13.40
2018-12-12T08:12:26.232Z,15.50
2018-12-12T08:13:26.222Z,13.80
2018-12-12T08:14:26.216Z,14.30
2018-12-12T08:15:26.194Z,14.10
2018-12-12T08:16:26.182Z,14.30
2018-12-12T08:17:26.173Z,16.20
2018-12-12T08:18:26.160Z,15.90
2018-12-12T08:19:26.160Z,13.50
2018-12-12T08:20:26.139Z,14.70
2018-12-12T08:21:26.133Z,14.40
2018-12-12T08:22:26.123Z,14.10
2018-12-12T08:23:26.110Z,13.90
2018-12-12T08:24:26.109Z,14.70
2018-12-12T08:25:26.086Z,16.70
2018-12-12T08:26:26.078Z,19.60
2018-12-12T08:27:26.187Z,15.30
2018-12-12T08:28:26.054Z,14.10
2018-12-12T08:29:26.054Z,16.40
2018-12-12T08:30:26.046Z,12.30
2018-12-12T08:31:26.023Z,14.10
2018-12-12T08:32:26.058Z,12.30
2018-12-12T08:33:26.005Z,12.30
2018-12-12T08:34:26.003Z,12.30
2018-12-12T08:35:25.979Z,12.70
2018-12-12T08:36:25.967Z,11.90
2018-12-12T08:37:25.959Z,13.20
2018-12-12T08:38:25.946Z,11.60
2018-12-12T08:39:25.954Z,12.30
2018-12-12T08:40:25.925Z,12.40
2018-12-12T08:41:25.916Z,12.20
2018-12-12T08:42:25.904Z,11.60
2018-12-12T08:43:25.893Z,12.50
2018-12-12T08:44:25.918Z,13.50
2018-12-12T08:45:25.874Z,11.60
2018-12-12T08:46:25.860Z,12.00
2018-12-12T08:47:25.849Z,15.60
2018-12-12T08:48:25.841Z,12.40
2018-12-12T08:49:25.836Z,13.00
2018-12-12T08:50:25.832Z,16.10
2018-12-12T08:51:25.831Z,13.90
2018-12-12T08:52:25.798Z,14.00
2018-12-12T08:53:25.789Z,16.40
2018-12-12T08:54:25.817Z,13.00
2018-12-12T08:55:25.781Z,13.70
2018-12-12T08:56:25.771Z,14.10
2018-12-12T08:57:25.748Z,14.20
2018-12-12T08:58:25.735Z,14.30
2018-12-12T08:59:25.736Z,14.00
2018-12-12T09:00:25.729Z,13.20
2018-12-12T09:01:25.716Z,12.70
2018-12-12T09:02:25.693Z,12.30
2018-12-12T09:03:25.681Z,13.20
2018-12-12T09:04:25.674Z,12.00
2018-12-12T09:05:25.673Z,14.90
2018-12-12T09:06:25.656Z,13.80
2018-12-12T09:07:25.648Z,12.20
2018-12-12T09:08:25.632Z,14.10
2018-12-12T09:09:25.622Z,14.00
2018-12-12T09:10:25.619Z,13.40
2018-12-12T09:11:25.602Z,14.90
2018-12-12T09:12:25.588Z,12.80
2018-12-12T09:13:25.575Z,14.20
2018-12-12T09:14:25.563Z,13.20
2018-12-12T09:15:25.566Z,13.00
2018-12-12T09:16:25.543Z,11.70
2018-12-12T09:17:25.558Z,11.40
2018-12-12T09:18:25.521Z,13.80
2018-12-12T09:19:25.511Z,14.00
2018-12-12T09:20:25.512Z,14.10
2018-12-12T09:21:25.492Z,15.60
2018-12-12T09:22:25.482Z,14.50
2018-12-12T09:23:25.483Z,13.40
2018-12-12T09:24:25.461Z,15.50
2018-12-12T09:25:25.517Z,16.10
2018-12-12T09:26:25.466Z,14.40
2018-12-12T09:27:25.431Z,16.30
2018-12-12T09:28:25.468Z,12.70
2018-12-12T09:29:25.416Z,20.20
2018-12-12T09:30:25.406Z,24.20
2018-12-12T09:31:25.397Z,42.50
2018-12-12T09:32:25.437Z,22.90
2018-12-12T09:33:26.329Z,20.70
2018-12-12T09:34:25.368Z,16.90
2018-12-12T09:35:26.778Z,15.80
2018-12-12T09:36:25.337Z,15.10
2018-12-12T09:37:25.327Z,19.20
2018-12-12T09:38:25.311Z,14.30
2018-12-12T09:39:25.308Z,14.90
2018-12-12T09:40:25.290Z,14.40
2018-12-12T09:41:25.310Z,18.90
2018-12-12T09:42:25.275Z,19.10
2018-12-12T09:43:25.264Z,18.40
2018-12-12T09:44:25.247Z,16.10
2018-12-12T09:45:25.262Z,19.50
2018-12-12T09:46:25.264Z,14.90
2018-12-12T09:47:25.218Z,16.40
2018-12-12T09:48:25.210Z,16.80
2018-12-12T09:49:25.195Z,19.30
2018-12-12T09:50:25.191Z,18.40
2018-12-12T09:51:25.214Z,16.70
2018-12-12T09:52:25.162Z,16.30
2018-12-12T09:53:25.162Z,14.50
2018-12-12T09:54:25.172Z,14.30
2018-12-12T09:55:25.139Z,15.20
2018-12-12T09:56:25.130Z,15.30
2018-12-12T09:57:25.109Z,13.60
2018-12-12T09:58:25.098Z,14.30
2018-12-12T09:59:25.089Z,11.50
2018-12-12T10:00:25.088Z,13.90
2018-12-12T10:01:25.079Z,12.20
2018-12-12T10:02:25.065Z,11.90
2018-12-12T10:03:30.989Z,13.70
2018-12-12T10:04:26.034Z,13.10
2018-12-12T10:05:25.023Z,13.10
2018-12-12T10:06:25.029Z,14.40
2018-12-12T10:07:25.010Z,16.10
2018-12-12T10:08:24.995Z,13.70
2018-12-12T10:09:24.984Z,13.90
2018-12-12T10:10:24.973Z,16.40
2018-12-12T10:11:24.993Z,13.70
2018-12-12T10:12:25.715Z,11.60
2018-12-12T10:13:24.948Z,12.30
2018-12-12T10:14:24.929Z,12.90
2018-12-12T10:15:24.919Z,10.40
2018-12-12T10:16:24.907Z,11.20
2018-12-12T10:17:24.910Z,12.90
2018-12-12T10:18:24.889Z,11.40
2018-12-12T10:19:24.878Z,13.50
2018-12-12T10:20:24.867Z,10.50
2018-12-12T10:21:24.855Z,11.90
2018-12-12T10:22:24.859Z,9.50
2018-12-12T10:23:24.840Z,12.10
2018-12-12T10:24:24.822Z,10.60
2018-12-12T10:25:24.832Z,9.80
2018-12-12T10:26:24.805Z,10.60
2018-12-12T10:27:24.815Z,12.00
2018-12-12T10:28:24.811Z,10.80
2018-12-12T10:29:24.770Z,12.30
2018-12-12T10:30:24.797Z,10.10
2018-12-12T10:31:24.750Z,9.50
2018-12-12T10:32:24.751Z,13.20
2018-12-12T10:33:24.735Z,12.40
2018-12-12T10:34:24.723Z,11.50
2018-12-12T10:35:24.709Z,16.20
2018-12-12T10:36:24.695Z,18.20
2018-12-12T10:37:24.700Z,16.20
2018-12-12T10:38:24.672Z,15.90
2018-12-12T10:39:24.663Z,17.70
2018-12-12T10:40:24.656Z,14.00
2018-12-12T10:41:24.645Z,13.30
2018-12-12T10:42:24.646Z,10.80
2018-12-12T10:43:24.624Z,9.70
2018-12-12T10:44:24.612Z,12.10
2018-12-12T10:45:24.649Z,9.80
2018-12-12T10:46:24.598Z,12.50
2018-12-12T10:47:24.590Z,12.10
2018-12-12T10:48:24.582Z,10.60
2018-12-12T10:49:24.565Z,11.10
2018-12-12T10:50:24.563Z,11.00
2018-12-12T10:51:24.536Z,10.80
2018-12-12T10:52:24.562Z,9.10
2018-12-12T10:53:24.516Z,12.00
2018-12-12T10:54:24.505Z,12.20
2018-12-12T10:55:24.496Z,12.20
2018-12-12T10:56:24.506Z,11.20
2018-12-12T10:57:24.472Z,11.80
2018-12-12T10:58:24.474Z,14.20
2018-12-12T10:59:25.287Z,17.10
2018-12-12T11:00:24.439Z,11.40
2018-12-12T11:01:24.439Z,11.90
2018-12-12T11:02:24.454Z,12.20
2018-12-12T11:03:24.431Z,13.20
2018-12-12T11:04:24.402Z,11.40
2018-12-12T11:05:24.408Z,13.50
2018-12-12T11:06:24.384Z,10.90
2018-12-12T11:07:24.372Z,10.80
2018-12-12T11:08:24.390Z,7.80
2018-12-12T11:09:24.350Z,8.50
2018-12-12T11:10:24.342Z,8.40
2018-12-12T11:11:24.334Z,8.30
2018-12-12T11:12:24.324Z,7.50
2018-12-12T11:13:24.319Z,7.90
2018-12-12T11:14:24.292Z,7.70
2018-12-12T11:15:24.288Z,9.20
2018-12-12T11:16:24.274Z,8.40
2018-12-12T11:17:24.268Z,9.60
2018-12-12T11:18:24.266Z,9.10
2018-12-12T11:19:24.270Z,10.60
2018-12-12T11:20:24.224Z,10.20
2018-12-12T11:21:24.211Z,12.80
2018-12-12T11:22:24.201Z,10.80
2018-12-12T11:23:24.203Z,11.90
2018-12-12T11:24:24.178Z,12.20
2018-12-12T11:25:24.171Z,11.30
2018-12-12T11:26:24.174Z,12.50
2018-12-12T11:27:24.201Z,13.90
2018-12-12T11:28:24.156Z,15.60
2018-12-12T11:29:24.130Z,12.60
2018-12-12T11:30:24.116Z,15.30
2018-12-12T11:31:24.104Z,15.10
2018-12-12T11:32:24.092Z,16.80
2018-12-12T11:33:24.182Z,15.90
2018-12-12T11:34:24.078Z,15.60
2018-12-12T11:35:24.129Z,13.10
2018-12-12T11:36:24.060Z,12.50
2018-12-12T11:37:24.040Z,15.40
2018-12-12T11:38:24.041Z,15.40
2018-12-12T11:39:24.023Z,15.80
2018-12-12T11:40:24.010Z,23.30
2018-12-12T11:41:24.007Z,25.10
2018-12-12T11:42:23.996Z,23.10
2018-12-12T11:43:24.025Z,33.00
2018-12-12T11:44:23.976Z,22.10
2018-12-12T11:45:23.964Z,17.80
2018-12-12T11:46:23.960Z,15.20
2018-12-12T11:47:23.942Z,15.40
2018-12-12T11:48:23.923Z,14.90
2018-12-12T11:49:23.925Z,17.40
2018-12-12T11:50:23.907Z,13.50
2018-12-12T11:51:23.893Z,13.90
2018-12-12T11:52:23.898Z,17.20
2018-12-12T11:53:23.871Z,13.50
2018-12-12T11:54:23.872Z,15.60
2018-12-12T11:55:23.848Z,15.10
2018-12-12T11:56:23.864Z,13.30
2018-12-12T11:57:23.829Z,13.30
2018-12-12T11:58:23.817Z,13.90
2018-12-12T11:59:23.817Z,11.90
2018-12-12T12:00:23.796Z,12.60
2018-12-12T12:01:23.785Z,12.40
2018-12-12T12:02:23.776Z,12.20
2018-12-12T12:03:23.768Z,13.20
2018-12-12T12:04:23.762Z,13.50
2018-12-12T12:05:23.760Z,13.40
2018-12-12T12:06:23.748Z,12.90
2018-12-12T12:07:23.720Z,14.60
2018-12-12T12:08:23.714Z,13.10
2018-12-12T12:09:23.707Z,12.40
2018-12-12T12:10:23.697Z,13.00
2018-12-12T12:11:23.677Z,14.00
2018-12-12T12:12:23.668Z,12.70
2018-12-12T12:13:23.654Z,14.40
2018-12-12T12:14:23.688Z,11.70
2018-12-12T12:15:23.639Z,13.20
2018-12-12T12:16:23.632Z,15.70
2018-12-12T12:17:23.612Z,14.00
2018-12-12T12:18:23.609Z,13.40
2018-12-12T12:19:23.605Z,16.40
2018-12-12T12:20:23.591Z,14.60
2018-12-12T12:21:23.587Z,14.90
2018-12-12T12:22:23.560Z,16.40
2018-12-12T12:23:23.553Z,15.00
2018-12-12T12:24:24.340Z,16.20
2018-12-12T12:25:23.538Z,16.20
2018-12-12T12:26:23.520Z,15.70
2018-12-12T12:27:23.511Z,15.10
2018-12-12T12:28:23.494Z,13.40
2018-12-12T12:29:23.484Z,15.90
2018-12-12T12:30:23.491Z,16.60
2018-12-12T12:31:23.469Z,15.60
2018-12-12T12:32:23.456Z,16.00
2018-12-12T12:33:23.443Z,15.30
2018-12-12T12:34:23.462Z,16.70
2018-12-12T12:35:23.460Z,16.20
2018-12-12T12:36:23.441Z,14.90
2018-12-12T12:37:23.473Z,14.50
2018-12-12T12:38:23.409Z,15.00
2018-12-12T12:39:23.386Z,16.30
2018-12-12T12:40:23.429Z,15.00
2018-12-12T12:41:23.369Z,15.20
2018-12-12T12:42:23.353Z,14.90
2018-12-12T12:43:23.352Z,17.90
2018-12-12T12:44:23.329Z,17.60
2018-12-12T12:45:23.358Z,15.50
2018-12-12T12:46:23.313Z,17.80
2018-12-12T12:47:23.313Z,16.00
2018-12-12T12:48:23.301Z,17.00
2018-12-12T12:49:23.278Z,20.30
2018-12-12T12:50:23.311Z,15.90
2018-12-12T12:51:23.269Z,15.80
2018-12-12T12:52:23.252Z,16.40
2018-12-12T12:53:23.235Z,16.50
2018-12-12T12:54:23.224Z,17.50
2018-12-12T12:55:23.226Z,17.30
2018-12-12T12:56:23.214Z,15.10
2018-12-12T12:57:23.186Z,17.10
2018-12-12T12:58:23.178Z,17.30
2018-12-12T12:59:23.169Z,16.30
2018-12-12T13:00:23.174Z,17.30
2018-12-12T13:01:23.171Z,15.20
2018-12-12T13:02:23.136Z,15.80